createdAt,value
2022-11-04T00:01:15.527Z,23.21
2022-11-04T00:03:42.634Z,23.21
2022-11-04T00:06:09.700Z,23.12
2022-11-04T00:08:36.897Z,23.08
2022-11-04T00:11:05.750Z,23.03
2022-11-04T00:13:32.827Z,23.03
2022-11-04T00:16:01.382Z,23.05
2022-11-04T00:18:28.475Z,23.06
2022-11-04T00:20:56.700Z,22.98
2022-11-04T00:23:23.782Z,23.00
2022-11-04T00:25:50.858Z,23.03
2022-11-04T00:28:20.244Z,23.08
2022-11-04T00:30:47.351Z,23.02
2022-11-04T00:33:14.425Z,23.03
2022-11-04T00:35:47.742Z,23.08
2022-11-04T00:38:14.864Z,23.11
2022-11-04T00:40:42.178Z,23.15
2022-11-04T00:43:09.382Z,23.17
2022-11-04T00:45:38.099Z,23.16
2022-11-04T00:48:06.013Z,23.23
2022-11-04T00:50:33.617Z,23.28
2022-11-04T00:53:01.487Z,23.22
2022-11-04T00:55:28.947Z,23.19
2022-11-04T00:57:56.095Z,23.12
2022-11-04T01:00:23.219Z,23.13
2022-11-04T01:02:51.667Z,23.05
2022-11-04T01:05:18.843Z,23.07
2022-11-04T01:07:45.931Z,22.97
2022-11-04T01:10:13.013Z,23.06
2022-11-04T01:12:40.110Z,22.98
2022-11-04T01:15:07.923Z,23.05
2022-11-04T01:17:34.985Z,23.04
2022-11-04T01:20:03.851Z,23.00
2022-11-04T01:22:30.939Z,23.00
2022-11-04T01:24:58.041Z,23.00
2022-11-04T01:27:25.129Z,23.07
2022-11-04T01:29:52.195Z,23.12
2022-11-04T01:32:19.274Z,23.13
2022-11-04T01:34:46.674Z,23.15
2022-11-04T01:37:15.101Z,23.22
2022-11-04T01:39:42.166Z,23.26
2022-11-04T01:42:13.783Z,23.21
2022-11-04T01:44:58.634Z,23.28
2022-11-04T01:47:30.930Z,23.21
2022-11-04T01:50:02.790Z,23.18
2022-11-04T01:52:36.030Z,23.15
2022-11-04T01:55:09.840Z,23.09
2022-11-04T01:57:41.286Z,23.05
2022-11-04T02:00:10.152Z,23.06
2022-11-04T02:02:46.679Z,22.99
2022-11-04T02:05:13.770Z,23.02
2022-11-04T02:07:42.482Z,22.96
2022-11-04T02:10:10.349Z,23.02
2022-11-04T02:12:37.450Z,22.98
2022-11-04T02:15:05.115Z,22.98
2022-11-04T02:18:06.051Z,22.98
2022-11-04T02:21:07.395Z,22.98
2022-11-04T02:24:04.918Z,22.95
2022-11-04T02:27:00.137Z,23.08
2022-11-04T02:29:41.868Z,23.17
2022-11-04T02:32:16.843Z,23.12
2022-11-04T02:34:55.665Z,23.19
2022-11-04T02:37:33.318Z,23.21
2022-11-04T02:40:11.227Z,23.25
2022-11-04T02:42:45.233Z,23.15
2022-11-04T02:45:20.064Z,23.08
2022-11-04T02:47:51.953Z,23.08
2022-11-04T02:50:25.625Z,23.10
2022-11-04T02:52:58.521Z,23.04
2022-11-04T02:55:28.590Z,23.05
2022-11-04T02:57:59.182Z,23.06
2022-11-04T03:00:29.014Z,23.04
2022-11-04T03:03:01.325Z,23.01
2022-11-04T03:05:32.927Z,23.00
2022-11-04T03:08:04.342Z,22.63
2022-11-04T03:10:39.340Z,22.99
2022-11-04T03:13:13.137Z,22.93
2022-11-04T03:15:48.699Z,22.98
2022-11-04T03:18:23.957Z,23.08
2022-11-04T03:20:52.977Z,23.07
2022-11-04T03:23:20.209Z,23.16
2022-11-04T03:25:53.298Z,23.07
2022-11-04T03:28:27.494Z,23.18
2022-11-04T03:30:56.771Z,23.16
2022-11-04T03:33:28.786Z,23.19
2022-11-04T03:35:56.027Z,23.13
2022-11-04T03:38:23.390Z,23.10
2022-11-04T03:40:51.490Z,23.09
2022-11-04T03:43:24.237Z,23.02
2022-11-04T03:45:51.794Z,23.02
2022-11-04T03:48:20.783Z,23.01
2022-11-04T03:50:49.337Z,23.00
2022-11-04T03:53:20.248Z,23.00
2022-11-04T03:56:02.569Z,22.98
2022-11-04T03:58:38.809Z,22.94
2022-11-04T04:01:23.752Z,22.93
2022-11-04T04:03:58.505Z,22.91
2022-11-04T04:06:29.992Z,22.87
2022-11-04T04:09:00.754Z,22.94
2022-11-04T04:11:36.720Z,23.00
2022-11-04T04:14:11.178Z,23.04
2022-11-04T04:16:43.250Z,23.04
2022-11-04T04:19:14.232Z,23.11
2022-11-04T04:21:45.308Z,23.12
2022-11-04T04:24:15.483Z,23.13
2022-11-04T04:26:44.954Z,23.14
2022-11-04T04:29:12.759Z,23.12
2022-11-04T04:31:40.929Z,23.11
2022-11-04T04:34:08.555Z,23.03
2022-11-04T04:36:45.327Z,23.05
2022-11-04T04:39:16.971Z,23.00
2022-11-04T04:41:44.076Z,22.99
2022-11-04T04:44:18.450Z,22.98
2022-11-04T04:46:48.558Z,23.02
2022-11-04T04:49:15.969Z,22.98
2022-11-04T04:51:46.995Z,22.97
2022-11-04T04:54:14.852Z,22.96
2022-11-04T04:56:41.932Z,22.90
2022-11-04T04:59:09.038Z,22.90
2022-11-04T05:01:36.243Z,22.98
2022-11-04T05:04:03.438Z,23.01
2022-11-04T05:06:30.770Z,23.06
2022-11-04T05:08:59.190Z,23.06
2022-11-04T05:11:27.213Z,23.09
2022-11-04T05:13:54.941Z,23.09
2022-11-04T05:16:22.039Z,23.12
2022-11-04T05:18:51.299Z,23.10
2022-11-04T05:21:18.392Z,23.14
2022-11-04T05:23:45.465Z,23.10
2022-11-04T05:26:13.924Z,23.06
2022-11-04T05:28:41.014Z,23.04
2022-11-04T05:31:08.121Z,23.03
2022-11-04T05:33:35.204Z,22.96
2022-11-04T05:36:06.154Z,22.94
2022-11-04T05:38:33.281Z,22.95
2022-11-04T05:41:00.528Z,22.97
2022-11-04T05:43:29.129Z,22.92
2022-11-04T05:45:58.435Z,22.90
2022-11-04T05:48:26.071Z,22.90
2022-11-04T05:50:53.230Z,22.91
2022-11-04T05:53:20.510Z,22.83
2022-11-04T05:55:47.654Z,22.91
2022-11-04T05:58:14.762Z,22.99
2022-11-04T06:00:43.186Z,23.04
2022-11-04T06:03:13.541Z,23.02
2022-11-04T06:05:43.357Z,23.04
2022-11-04T06:08:10.838Z,23.11
2022-11-04T06:10:38.137Z,23.13
2022-11-04T06:13:05.355Z,23.14
2022-11-04T06:15:32.426Z,23.07
2022-11-04T06:18:00.850Z,23.07
2022-11-04T06:20:27.962Z,23.01
2022-11-04T06:22:55.018Z,22.97
2022-11-04T06:25:22.105Z,22.96
2022-11-04T06:27:49.210Z,22.91
2022-11-04T06:30:16.374Z,22.88
2022-11-04T06:32:43.499Z,22.90
2022-11-04T06:35:11.931Z,22.86
2022-11-04T06:37:39.017Z,22.86
2022-11-04T06:40:07.562Z,22.87
2022-11-04T06:42:34.653Z,22.91
2022-11-04T06:45:01.730Z,22.69
2022-11-04T06:47:28.808Z,22.94
2022-11-04T06:49:55.912Z,22.96
2022-11-04T06:52:24.423Z,22.91
2022-11-04T06:54:51.489Z,22.97
2022-11-04T06:57:18.619Z,23.00
2022-11-04T06:59:45.700Z,23.07
2022-11-04T07:02:12.895Z,23.09
2022-11-04T07:04:40.089Z,23.09
2022-11-04T07:07:07.179Z,23.13
2022-11-04T07:09:35.614Z,23.05
2022-11-04T07:12:02.727Z,23.02
2022-11-04T07:14:29.790Z,23.00
2022-11-04T07:16:56.877Z,22.97
2022-11-04T07:19:24.256Z,22.98
2022-11-04T07:21:51.330Z,22.95
2022-11-04T07:24:18.421Z,22.94
2022-11-04T07:26:46.869Z,22.92
2022-11-04T07:29:13.964Z,22.89
2022-11-04T07:31:41.286Z,22.91
2022-11-04T07:34:08.485Z,22.89
2022-11-04T07:36:35.580Z,22.91
2022-11-04T07:39:02.664Z,22.88
2022-11-04T07:41:29.783Z,22.92
2022-11-04T07:43:58.215Z,22.90
2022-11-04T07:46:25.286Z,23.05
2022-11-04T07:48:52.403Z,22.99
2022-11-04T07:51:20.653Z,23.01
2022-11-04T07:53:47.766Z,23.02
2022-11-04T07:56:15.218Z,23.04
2022-11-04T07:58:42.747Z,23.08
2022-11-04T08:01:13.870Z,23.09
2022-11-04T08:03:41.002Z,23.08
2022-11-04T08:06:09.800Z,22.96
2022-11-04T08:08:37.160Z,22.93
2022-11-04T08:11:07.030Z,22.94
2022-11-04T08:13:36.674Z,22.88
2022-11-04T08:16:06.030Z,22.98
2022-11-04T08:18:34.485Z,22.97
2022-11-04T08:21:02.476Z,22.88
2022-11-04T08:23:30.108Z,22.92
2022-11-04T08:25:57.391Z,22.87
2022-11-04T08:28:24.858Z,22.88
2022-11-04T08:30:53.495Z,22.89
2022-11-04T08:33:20.725Z,22.84
2022-11-04T08:35:49.288Z,22.93
2022-11-04T08:38:16.467Z,22.95
2022-11-04T08:40:44.341Z,22.96
2022-11-04T08:43:11.786Z,23.02
2022-11-04T08:45:41.015Z,23.04
2022-11-04T08:48:08.827Z,23.02
2022-11-04T08:50:36.058Z,23.10
2022-11-04T08:53:04.919Z,23.09
2022-11-04T08:55:32.860Z,23.09
2022-11-04T08:58:00.458Z,23.02
2022-11-04T09:00:28.098Z,22.98
2022-11-04T09:02:55.197Z,23.03
2022-11-04T09:05:22.307Z,22.93
2022-11-04T09:07:49.508Z,22.94
2022-11-04T09:10:18.731Z,22.99
2022-11-04T09:12:45.818Z,22.96
2022-11-04T09:15:13.664Z,22.95
2022-11-04T09:17:40.777Z,22.97
2022-11-04T09:20:08.711Z,22.88
2022-11-04T09:22:35.811Z,22.95
2022-11-04T09:25:03.294Z,22.98
2022-11-04T09:27:31.714Z,22.92
2022-11-04T09:29:58.810Z,23.00
2022-11-04T09:32:25.927Z,22.98
2022-11-04T09:34:52.990Z,23.04
2022-11-04T09:37:20.059Z,23.08
2022-11-04T09:39:51.374Z,23.09
2022-11-04T09:42:43.330Z,23.08
2022-11-04T09:45:21.823Z,23.00
2022-11-04T09:47:52.710Z,23.08
2022-11-04T09:50:24.477Z,23.06
2022-11-04T09:52:56.828Z,23.08
2022-11-04T09:55:32.255Z,23.08
2022-11-04T09:58:00.762Z,23.06
2022-11-04T10:00:32.572Z,23.03
2022-11-04T10:03:12.266Z,23.04
2022-11-04T10:06:00.173Z,23.00
2022-11-04T10:08:45.100Z,22.98
2022-11-04T10:11:21.302Z,22.96
2022-11-04T10:14:07.037Z,22.90
2022-11-04T10:16:47.038Z,22.93
2022-11-04T10:19:30.631Z,22.90
2022-11-04T10:22:04.486Z,22.93
2022-11-04T10:24:41.302Z,22.98
2022-11-04T10:27:16.426Z,23.10
2022-11-04T10:29:48.464Z,23.07
2022-11-04T10:32:22.476Z,23.09
2022-11-04T10:34:56.754Z,23.16
2022-11-04T10:37:25.194Z,23.15
2022-11-04T10:39:59.046Z,23.18
2022-11-04T10:42:26.199Z,23.08
2022-11-04T10:44:54.725Z,23.13
2022-11-04T10:47:32.343Z,23.10
2022-11-04T10:50:28.810Z,23.05
2022-11-04T10:53:09.713Z,23.06
2022-11-04T10:55:46.833Z,23.04
2022-11-04T10:58:19.833Z,23.05
2022-11-04T11:00:48.711Z,22.99
2022-11-04T11:03:30.580Z,22.95
2022-11-04T11:06:14.192Z,22.97
2022-11-04T11:08:42.806Z,22.98
2022-11-04T11:11:11.047Z,23.03
2022-11-04T11:13:40.710Z,22.97
2022-11-04T11:16:12.404Z,22.98
2022-11-04T11:18:40.334Z,23.05
2022-11-04T11:21:12.462Z,23.10
2022-11-04T11:23:42.518Z,23.04
2022-11-04T11:26:12.578Z,23.10
2022-11-04T11:28:41.267Z,23.10
2022-11-04T11:31:12.975Z,23.11
2022-11-04T11:33:48.414Z,23.15
2022-11-04T11:36:19.467Z,23.13
2022-11-04T11:38:59.700Z,23.13
2022-11-04T11:41:27.924Z,22.91
2022-11-04T11:43:56.229Z,22.95
2022-11-04T11:46:27.847Z,23.02
2022-11-04T11:48:56.905Z,22.99
2022-11-04T11:51:31.532Z,23.00
2022-11-04T11:54:19.243Z,22.96
2022-11-04T11:57:12.738Z,22.95
2022-11-04T12:02:45.843Z,22.92
2022-11-04T12:11:10.783Z,22.93
2022-11-04T12:13:44.050Z,23.00
2022-11-04T12:16:23.934Z,23.05
2022-11-04T12:19:08.805Z,23.06
2022-11-04T12:21:41.124Z,23.08
2022-11-04T12:24:19.853Z,23.10
2022-11-04T12:26:54.993Z,23.00
2022-11-04T12:29:34.730Z,22.93
2022-11-04T12:32:13.535Z,22.85
2022-11-04T12:35:00.870Z,22.99
2022-11-04T12:37:39.863Z,22.99
2022-11-04T12:40:12.716Z,22.96
2022-11-04T12:43:03.789Z,22.92
2022-11-04T12:45:42.791Z,22.92
2022-11-04T12:48:14.577Z,22.92
2022-11-04T12:51:00.914Z,22.91
2022-11-04T12:53:57.112Z,22.89
2022-11-04T12:56:35.627Z,22.83
2022-11-04T12:59:25.316Z,22.85
2022-11-04T13:01:56.557Z,22.87
2022-11-04T13:04:32.144Z,22.87
2022-11-04T13:07:05.221Z,22.91
2022-11-04T13:09:36.875Z,23.00
2022-11-04T13:12:09.695Z,22.97
2022-11-04T13:14:44.982Z,23.02
2022-11-04T13:17:15.889Z,23.06
2022-11-04T13:19:47.594Z,22.62
2022-11-04T13:22:22.587Z,23.16
2022-11-04T13:24:55.364Z,23.14
2022-11-04T13:27:26.325Z,23.22
2022-11-04T13:30:04.745Z,23.27
2022-11-04T13:32:37.221Z,23.29
2022-11-04T13:35:13.019Z,23.34
2022-11-04T13:37:49.867Z,23.22
2022-11-04T13:40:20.864Z,23.31
2022-11-04T13:43:13.687Z,23.40
2022-11-04T13:45:47.471Z,23.40
2022-11-04T13:48:20.198Z,23.43
2022-11-04T13:50:57.007Z,23.36
2022-11-04T13:53:45.459Z,23.28
2022-11-04T13:56:34.179Z,23.16
2022-11-04T13:59:19.811Z,23.24
2022-11-04T14:01:47.461Z,23.18
2022-11-04T14:04:31.146Z,23.27
2022-11-04T14:07:00.473Z,23.31
2022-11-04T14:09:52.528Z,23.37
2022-11-04T14:12:31.964Z,23.41
2022-11-04T14:15:10.949Z,23.45
2022-11-04T14:18:09.106Z,23.50
2022-11-04T14:21:05.320Z,23.52
2022-11-04T14:23:33.810Z,23.50
2022-11-04T14:26:03.599Z,23.53
2022-11-04T14:28:36.286Z,23.57
2022-11-04T14:31:05.491Z,23.51
2022-11-04T14:33:38.904Z,23.62
2022-11-04T14:36:33.405Z,23.56
2022-11-04T14:39:06.585Z,23.64
2022-11-04T14:41:56.244Z,23.62
2022-11-04T14:44:32.369Z,23.54
2022-11-04T14:47:06.638Z,23.39
2022-11-04T14:49:40.418Z,23.41
2022-11-04T14:52:21.612Z,23.45
2022-11-04T14:54:52.913Z,23.37
2022-11-04T14:57:23.653Z,23.35
2022-11-04T14:59:51.211Z,23.41
2022-11-04T15:02:22.443Z,23.44
2022-11-04T15:04:57.180Z,23.67
2022-11-04T15:07:35.330Z,23.59
2022-11-04T15:10:18.211Z,23.54
2022-11-04T15:12:46.040Z,23.39
2022-11-04T15:15:38.728Z,23.38
2022-11-04T15:18:08.459Z,23.32
2022-11-04T15:20:40.208Z,23.26
2022-11-04T15:23:14.184Z,23.29
2022-11-04T15:25:46.019Z,23.42
2022-11-04T15:28:19.571Z,23.44
2022-11-04T15:30:59.573Z,23.47
2022-11-04T15:33:27.176Z,23.36
2022-11-04T15:35:55.824Z,23.38
2022-11-04T15:38:27.546Z,23.37
2022-11-04T15:40:56.308Z,23.32
2022-11-04T15:43:23.541Z,23.27
2022-11-04T15:45:52.785Z,23.24
2022-11-04T15:48:28.598Z,23.25
2022-11-04T15:51:15.784Z,23.29
2022-11-04T15:53:51.425Z,23.30
2022-11-04T15:56:21.678Z,23.26
2022-11-04T15:58:49.553Z,23.29
2022-11-04T16:01:19.523Z,23.36
2022-11-04T16:03:52.088Z,23.44
2022-11-04T16:06:32.982Z,23.40
2022-11-04T16:09:17.873Z,23.41
2022-11-04T16:12:03.745Z,23.41
2022-11-04T16:14:31.138Z,23.63
2022-11-04T16:16:58.382Z,23.64
2022-11-04T16:19:28.080Z,23.51
2022-11-04T16:22:04.859Z,23.54
2022-11-04T16:24:36.311Z,23.55
2022-11-04T16:27:03.894Z,23.54
2022-11-04T16:29:32.707Z,23.48
2022-11-04T16:32:27.234Z,23.46
2022-11-04T16:34:57.936Z,23.48
2022-11-04T16:37:26.572Z,23.56
2022-11-04T16:39:55.105Z,23.57
2022-11-04T16:42:22.544Z,23.50
2022-11-04T16:44:51.663Z,23.59
2022-11-04T16:47:19.406Z,23.53
2022-11-04T16:49:47.154Z,23.53
2022-11-04T16:52:23.506Z,23.56
2022-11-04T16:54:51.029Z,23.55
2022-11-04T16:57:19.550Z,23.55
2022-11-04T16:59:46.648Z,23.52
2022-11-04T17:02:19.309Z,23.59
2022-11-04T17:04:46.539Z,23.47
2022-11-04T17:07:13.913Z,23.38
2022-11-04T17:09:41.040Z,23.47
2022-11-04T17:12:08.560Z,23.54
2022-11-04T17:14:37.094Z,23.60
2022-11-04T17:17:05.037Z,23.55
2022-11-04T17:19:34.779Z,23.55
2022-11-04T17:22:04.472Z,23.54
2022-11-04T17:24:31.578Z,23.51
2022-11-04T17:26:58.933Z,23.55
2022-11-04T17:29:26.329Z,23.56
2022-11-04T17:31:54.782Z,23.60
2022-11-04T17:34:21.970Z,23.68
2022-11-04T17:36:49.128Z,23.64
2022-11-04T17:39:16.222Z,23.61
2022-11-04T17:41:43.335Z,23.62
2022-11-04T17:44:10.500Z,23.60
2022-11-04T17:46:37.809Z,23.54
2022-11-04T17:49:11.389Z,23.52
2022-11-04T17:51:39.062Z,23.52
2022-11-04T17:54:06.419Z,23.49
2022-11-04T17:56:33.792Z,23.44
2022-11-04T17:59:01.734Z,23.42
2022-11-04T18:01:28.903Z,23.40
2022-11-04T18:03:56.172Z,23.41
2022-11-04T18:06:25.974Z,23.51
2022-11-04T18:08:53.609Z,23.46
2022-11-04T18:11:21.603Z,23.56
2022-11-04T18:13:48.701Z,23.62
2022-11-04T18:16:15.786Z,23.66
2022-11-04T18:18:42.899Z,23.64
2022-11-04T18:21:09.998Z,23.64
2022-11-04T18:23:38.451Z,23.67
2022-11-04T18:26:08.604Z,23.66
2022-11-04T18:28:36.926Z,23.61
2022-11-04T18:31:07.847Z,23.69
2022-11-04T18:33:35.150Z,23.68
2022-11-04T18:36:03.279Z,23.62
2022-11-04T18:38:30.388Z,23.62
2022-11-04T18:40:59.466Z,23.64
2022-11-04T18:43:26.625Z,23.59
2022-11-04T18:45:54.083Z,23.62
2022-11-04T18:48:21.235Z,23.63
2022-11-04T18:50:48.490Z,23.67
2022-11-04T18:53:16.211Z,23.64
2022-11-04T18:55:43.323Z,23.51
2022-11-04T18:58:12.294Z,23.49
2022-11-04T19:00:39.528Z,23.64
2022-11-04T19:03:06.679Z,23.61
2022-11-04T19:05:34.090Z,23.66
2022-11-04T19:08:01.181Z,23.82
2022-11-04T19:10:28.296Z,23.76
2022-11-04T19:12:55.381Z,23.69
2022-11-04T19:15:24.151Z,23.72
2022-11-04T19:17:51.319Z,23.67
2022-11-04T19:20:18.852Z,23.62
2022-11-04T19:22:45.967Z,23.62
2022-11-04T19:25:13.328Z,23.68
2022-11-04T19:27:40.521Z,23.61
2022-11-04T19:30:08.641Z,23.57
2022-11-04T19:32:37.169Z,23.58
2022-11-04T19:35:04.673Z,23.57
2022-11-04T19:37:31.803Z,23.70
2022-11-04T19:39:58.912Z,23.70
2022-11-04T19:42:26.025Z,23.74
2022-11-04T19:44:53.157Z,23.78
2022-11-04T19:47:20.510Z,23.73
2022-11-04T19:49:49.046Z,23.74
2022-11-04T19:52:16.141Z,23.65
2022-11-04T19:54:43.265Z,23.67
2022-11-04T19:57:10.381Z,23.68
2022-11-04T19:59:37.489Z,23.63
2022-11-04T20:02:04.874Z,23.59
2022-11-04T20:04:32.063Z,23.54
2022-11-04T20:07:00.551Z,23.56
2022-11-04T20:09:27.657Z,23.59
2022-11-04T20:11:54.755Z,23.54
2022-11-04T20:14:21.882Z,23.50
2022-11-04T20:16:49.008Z,23.50
2022-11-04T20:19:21.395Z,23.49
2022-11-04T20:21:49.765Z,23.53
2022-11-04T20:24:18.420Z,23.60
2022-11-04T20:26:45.714Z,23.61
2022-11-04T20:29:12.915Z,23.59
2022-11-04T20:31:40.030Z,23.59
2022-11-04T20:34:08.612Z,23.58
2022-11-04T20:36:37.126Z,23.59
2022-11-04T20:39:06.511Z,23.68
2022-11-04T20:41:35.002Z,23.72
2022-11-04T20:44:02.102Z,23.64
2022-11-04T20:46:31.261Z,23.57
2022-11-04T20:48:58.736Z,23.56
2022-11-04T20:51:27.665Z,23.46
2022-11-04T20:53:56.157Z,23.49
2022-11-04T20:56:24.534Z,23.46
2022-11-04T20:58:58.840Z,23.45
2022-11-04T21:01:29.213Z,23.43
2022-11-04T21:03:59.724Z,23.45
2022-11-04T21:06:27.633Z,23.41
2022-11-04T21:08:55.062Z,23.41
2022-11-04T21:11:25.220Z,23.45
2022-11-04T21:13:55.994Z,23.55
2022-11-04T21:16:23.291Z,23.53
2022-11-04T21:18:50.421Z,23.56
2022-11-04T21:21:18.165Z,23.57
2022-11-04T21:23:45.538Z,23.57
2022-11-04T21:26:17.141Z,23.65
2022-11-04T21:28:44.267Z,23.58
2022-11-04T21:31:12.906Z,23.56
2022-11-04T21:33:40.011Z,23.51
2022-11-04T21:36:10.567Z,23.51
2022-11-04T21:38:37.704Z,23.49
2022-11-04T21:41:06.903Z,23.52
2022-11-04T21:43:34.343Z,23.43
2022-11-04T21:46:02.506Z,23.45
2022-11-04T21:48:32.577Z,23.43
2022-11-04T21:51:01.046Z,23.44
2022-11-04T21:53:28.934Z,23.39
2022-11-04T21:56:01.949Z,23.43
2022-11-04T21:58:29.045Z,23.36
2022-11-04T22:00:56.503Z,23.46
2022-11-04T22:03:23.614Z,23.47
2022-11-04T22:05:59.387Z,23.51
2022-11-04T22:08:26.834Z,23.56
2022-11-04T22:10:54.395Z,23.56
2022-11-04T22:13:22.670Z,23.62
2022-11-04T22:15:49.833Z,23.64
2022-11-04T22:18:16.903Z,23.59
2022-11-04T22:20:44.021Z,23.54
2022-11-04T22:23:12.839Z,23.49
2022-11-04T22:25:40.198Z,23.45
2022-11-04T22:28:07.414Z,23.44
2022-11-04T22:30:35.538Z,23.43
2022-11-04T22:33:02.788Z,23.42
2022-11-04T22:35:31.325Z,23.39
2022-11-04T22:37:58.433Z,23.40
2022-11-04T22:40:26.937Z,23.42
2022-11-04T22:42:54.242Z,23.37
2022-11-04T22:45:21.338Z,23.34
2022-11-04T22:47:48.426Z,23.30
2022-11-04T22:50:15.703Z,23.37
2022-11-04T22:52:42.804Z,23.47
2022-11-04T22:55:09.883Z,23.47
2022-11-04T22:57:38.374Z,23.49
2022-11-04T23:00:07.223Z,23.51
2022-11-04T23:02:37.192Z,23.58
2022-11-04T23:05:05.037Z,23.52
2022-11-04T23:07:32.130Z,23.51
2022-11-04T23:09:59.232Z,23.48
2022-11-04T23:12:26.475Z,23.50
2022-11-04T23:14:54.915Z,23.43
2022-11-04T23:17:22.992Z,23.45
2022-11-04T23:19:50.334Z,23.43
2022-11-04T23:22:17.430Z,23.38
2022-11-04T23:24:44.538Z,23.38
2022-11-04T23:27:11.683Z,23.38
2022-11-04T23:29:38.767Z,23.44
2022-11-04T23:32:07.173Z,23.38
2022-11-04T23:34:34.295Z,23.34
2022-11-04T23:37:01.398Z,23.27
2022-11-04T23:39:28.481Z,23.38
2022-11-04T23:41:55.638Z,23.38
2022-11-04T23:44:22.704Z,23.43
2022-11-04T23:46:49.795Z,23.52
2022-11-04T23:49:18.226Z,23.60
2022-11-04T23:51:45.314Z,23.56
2022-11-04T23:54:12.414Z,23.58
2022-11-04T23:56:39.718Z,23.55
2022-11-04T23:59:08.918Z,23.51
